sensor_id;sensor_type;location;lat;lon;timestamp;pressure;altitude;pressure_sealevel;temperature;humidity
12471;BME280;36499;46.484;13.832;2023-05-11T00:00:31;92819.75;;;11.00;93.99
12471;BME280;36499;46.484;13.832;2023-05-11T00:02:58;92812.16;;;10.99;93.47
12471;BME280;36499;46.484;13.832;2023-05-11T00:05:26;92812.59;;;10.96;93.93
12471;BME280;36499;46.484;13.832;2023-05-11T00:07:53;92809.41;;;10.94;94.04
12471;BME280;36499;46.484;13.832;2023-05-11T00:10:21;92809.41;;;10.94;93.87
12471;BME280;36499;46.484;13.832;2023-05-11T00:12:48;92807.16;;;10.97;94.10
12471;BME280;36499;46.484;13.832;2023-05-11T00:15:15;92802.16;;;10.96;94.18
12471;BME280;36499;46.484;13.832;2023-05-11T00:17:43;92799.78;;;10.94;93.93
12471;BME280;36499;46.484;13.832;2023-05-11T00:20:10;92798.84;;;10.89;93.75
12471;BME280;36499;46.484;13.832;2023-05-11T00:22:39;92796.69;;;10.86;93.55
12471;BME280;36499;46.484;13.832;2023-05-11T00:25:07;92795.88;;;10.85;94.16
12471;BME280;36499;46.484;13.832;2023-05-11T00:27:34;92789.66;;;10.86;94.16
12471;BME280;36499;46.484;13.832;2023-05-11T00:30:01;92789.88;;;10.85;94.33
12471;BME280;36499;46.484;13.832;2023-05-11T00:32:28;92786.25;;;10.86;95.05
12471;BME280;36499;46.484;13.832;2023-05-11T00:34:55;92784.25;;;10.88;94.21
12471;BME280;36499;46.484;13.832;2023-05-11T00:37:22;92780.84;;;10.87;94.20
12471;BME280;36499;46.484;13.832;2023-05-11T00:39:51;92783.16;;;11.19;92.98
12471;BME280;36499;46.484;13.832;2023-05-11T00:42:18;92781.50;;;11.24;91.83
12471;BME280;36499;46.484;13.832;2023-05-11T00:44:45;92777.88;;;11.25;91.31
12471;BME280;36499;46.484;13.832;2023-05-11T00:47:12;92776.28;;;11.24;91.07
12471;BME280;36499;46.484;13.832;2023-05-11T00:49:40;92779.00;;;11.18;91.01
12471;BME280;36499;46.484;13.832;2023-05-11T00:52:07;92770.56;;;11.16;91.52
12471;BME280;36499;46.484;13.832;2023-05-11T00:54:35;92772.84;;;11.12;91.60
12471;BME280;36499;46.484;13.832;2023-05-11T00:57:04;92769.44;;;11.12;91.65
12471;BME280;36499;46.484;13.832;2023-05-11T00:59:31;92765.81;;;11.13;91.90
12471;BME280;36499;46.484;13.832;2023-05-11T01:01:59;92768.22;;;11.14;92.21
12471;BME280;36499;46.484;13.832;2023-05-11T01:04:26;92762.75;;;11.16;92.00
12471;BME280;36499;46.484;13.832;2023-05-11T01:07:04;92770.38;;;11.17;92.27
12471;BME280;36499;46.484;13.832;2023-05-11T01:09:47;92761.53;;;11.18;92.07
12471;BME280;36499;46.484;13.832;2023-05-11T01:12:28;92759.69;;;11.19;92.16
12471;BME280;36499;46.484;13.832;2023-05-11T01:15:05;92765.72;;;11.19;91.62
12471;BME280;36499;46.484;13.832;2023-05-11T01:17:44;92763.91;;;11.20;91.46
12471;BME280;36499;46.484;13.832;2023-05-11T01:20:17;92764.34;;;11.17;91.82
12471;BME280;36499;46.484;13.832;2023-05-11T01:23:41;92765.16;;;11.17;91.80
12471;BME280;36499;46.484;13.832;2023-05-11T01:26:32;92757.53;;;11.16;91.18
12471;BME280;36499;46.484;13.832;2023-05-11T01:32:19;92759.59;;;11.14;91.38
12471;BME280;36499;46.484;13.832;2023-05-11T01:34:54;92752.66;;;11.19;91.22
12471;BME280;36499;46.484;13.832;2023-05-11T01:37:30;92752.66;;;11.19;90.74
12471;BME280;36499;46.484;13.832;2023-05-11T01:40:02;92751.09;;;11.18;90.94
12471;BME280;36499;46.484;13.832;2023-05-11T01:42:37;92751.97;;;11.12;90.92
12471;BME280;36499;46.484;13.832;2023-05-11T01:45:09;92744.81;;;11.07;91.38
12471;BME280;36499;46.484;13.832;2023-05-11T01:47:40;92746.41;;;11.08;91.44
12471;BME280;36499;46.484;13.832;2023-05-11T01:50:10;92743.00;;;11.08;92.00
12471;BME280;36499;46.484;13.832;2023-05-11T01:52:39;92746.41;;;11.08;91.98
12471;BME280;36499;46.484;13.832;2023-05-11T01:55:08;92746.41;;;11.08;92.13
12471;BME280;36499;46.484;13.832;2023-05-11T01:57:37;92742.19;;;11.07;91.85
12471;BME280;36499;46.484;13.832;2023-05-11T02:00:07;92743.00;;;11.08;92.31
12471;BME280;36499;46.484;13.832;2023-05-11T02:02:37;92739.72;;;11.13;92.00
12471;BME280;36499;46.484;13.832;2023-05-11T02:05:07;92736.31;;;11.12;91.96
12471;BME280;36499;46.484;13.832;2023-05-11T02:07:37;92736.09;;;11.14;91.69
12471;BME280;36499;46.484;13.832;2023-05-11T02:10:07;92733.16;;;11.10;91.41
12471;BME280;36499;46.484;13.832;2023-05-11T02:12:36;92733.16;;;11.10;91.59
12471;BME280;36499;46.484;13.832;2023-05-11T02:15:07;92734.16;;;11.09;91.17
12471;BME280;36499;46.484;13.832;2023-05-11T02:17:39;92728.16;;;11.08;91.19
12471;BME280;36499;46.484;13.832;2023-05-11T02:20:10;92729.16;;;11.07;91.77
12471;BME280;36499;46.484;13.832;2023-05-11T02:22:38;92727.94;;;11.10;91.89
12471;BME280;36499;46.484;13.832;2023-05-11T02:25:08;92724.28;;;11.11;91.56
12471;BME280;36499;46.484;13.832;2023-05-11T02:27:37;92720.31;;;11.08;91.25
12471;BME280;36499;46.484;13.832;2023-05-11T02:30:06;92723.72;;;11.09;91.61
12471;BME280;36499;46.484;13.832;2023-05-11T02:32:36;92725.78;;;11.07;91.26
12471;BME280;36499;46.484;13.832;2023-05-11T02:35:12;92721.31;;;11.07;91.53
12471;BME280;36499;46.484;13.832;2023-05-11T02:37:45;92726.13;;;10.81;93.50
12471;BME280;36499;46.484;13.832;2023-05-11T02:40:17;92719.16;;;10.93;93.21
12471;BME280;36499;46.484;13.832;2023-05-11T02:42:52;92715.56;;;11.05;92.28
12471;BME280;36499;46.484;13.832;2023-05-11T02:45:23;92715.34;;;11.07;92.07
12471;BME280;36499;46.484;13.832;2023-05-11T02:47:55;92711.69;;;11.08;91.79
12471;BME280;36499;46.484;13.832;2023-05-11T02:50:27;92707.94;;;11.04;91.83
12471;BME280;36499;46.484;13.832;2023-05-11T02:53:00;92703.97;;;11.01;91.68
12471;BME280;36499;46.484;13.832;2023-05-11T02:55:30;92713.63;;;11.01;91.74
12471;BME280;36499;46.484;13.832;2023-05-11T02:57:58;92710.00;;;11.02;91.39
12471;BME280;36499;46.484;13.832;2023-05-11T03:00:25;92701.59;;;11.00;91.64
12471;BME280;36499;46.484;13.832;2023-05-11T03:02:52;92701.16;;;11.03;91.83
12471;BME280;36499;46.484;13.832;2023-05-11T03:05:19;92701.16;;;11.03;91.63
12471;BME280;36499;46.484;13.832;2023-05-11T03:07:47;92699.56;;;11.02;91.86
12471;BME280;36499;46.484;13.832;2023-05-11T03:10:15;92700.00;;;10.99;92.05
12471;BME280;36499;46.484;13.832;2023-05-11T03:12:42;92690.72;;;11.03;92.29
12471;BME280;36499;46.484;13.832;2023-05-11T03:15:11;92693.09;;;11.04;91.88
12471;BME280;36499;46.484;13.832;2023-05-11T03:17:38;92703.88;;;11.08;91.32
12471;BME280;36499;46.484;13.832;2023-05-11T03:20:08;92693.69;;;11.06;91.41
12471;BME280;36499;46.484;13.832;2023-05-11T03:22:36;92688.66;;;11.05;91.83
12471;BME280;36499;46.484;13.832;2023-05-11T03:25:07;92693.09;;;11.04;91.76
12471;BME280;36499;46.484;13.832;2023-05-11T03:27:37;92692.28;;;10.92;92.21
12471;BME280;36499;46.484;13.832;2023-05-11T03:30:08;92692.75;;;11.01;91.97
12471;BME280;36499;46.484;13.832;2023-05-11T03:32:37;92689.44;;;10.94;92.19
12471;BME280;36499;46.484;13.832;2023-05-11T03:35:05;92681.84;;;11.04;91.72
12471;BME280;36499;46.484;13.832;2023-05-11T03:37:36;92684.72;;;11.02;91.45
12471;BME280;36499;46.484;13.832;2023-05-11T03:40:07;92687.06;;;11.04;91.71
12471;BME280;36499;46.484;13.832;2023-05-11T03:42:36;92688.13;;;11.03;91.81
12471;BME280;36499;46.484;13.832;2023-05-11T03:45:08;92686.53;;;11.02;91.83
12471;BME280;36499;46.484;13.832;2023-05-11T03:47:38;92688.66;;;11.05;91.40
12471;BME280;36499;46.484;13.832;2023-05-11T03:50:07;92685.72;;;11.01;91.22
12471;BME280;36499;46.484;13.832;2023-05-11T03:52:36;92681.50;;;11.00;91.12
12471;BME280;36499;46.484;13.832;2023-05-11T03:55:07;92685.16;;;10.99;91.46
12471;BME280;36499;46.484;13.832;2023-05-11T03:57:34;92682.44;;;10.94;92.01
12471;BME280;36499;46.484;13.832;2023-05-11T04:00:02;92687.28;;;10.91;92.72
12471;BME280;36499;46.484;13.832;2023-05-11T04:02:30;92687.41;;;10.96;92.56
12471;BME280;36499;46.484;13.832;2023-05-11T04:04:57;92688.88;;;10.92;92.31
12471;BME280;36499;46.484;13.832;2023-05-11T04:07:24;92688.09;;;10.91;92.37
12471;BME280;36499;46.484;13.832;2023-05-11T04:09:51;92685.84;;;10.95;92.66
12471;BME280;36499;46.484;13.832;2023-05-11T04:12:20;92688.44;;;10.95;92.57
12471;BME280;36499;46.484;13.832;2023-05-11T04:14:47;92687.66;;;10.94;92.63
12471;BME280;36499;46.484;13.832;2023-05-11T04:17:14;92686.50;;;10.90;92.62
12471;BME280;36499;46.484;13.832;2023-05-11T04:19:41;92683.78;;;10.97;91.97
12471;BME280;36499;46.484;13.832;2023-05-11T04:22:08;92689.66;;;10.92;91.85
12471;BME280;36499;46.484;13.832;2023-05-11T04:24:36;92681.63;;;10.94;92.46
12471;BME280;36499;46.484;13.832;2023-05-11T04:27:04;92690.00;;;10.96;92.56
12471;BME280;36499;46.484;13.832;2023-05-11T04:29:32;92683.22;;;10.95;91.98
12471;BME280;36499;46.484;13.832;2023-05-11T04:31:59;92681.75;;;10.99;92.25
12471;BME280;36499;46.484;13.832;2023-05-11T04:34:26;92684.03;;;10.95;92.27
12471;BME280;36499;46.484;13.832;2023-05-11T04:36:53;92681.16;;;10.97;92.05
12471;BME280;36499;46.484;13.832;2023-05-11T04:39:20;92686.19;;;10.98;92.25
12471;BME280;36499;46.484;13.832;2023-05-11T04:41:48;92683.56;;;10.98;91.92
12471;BME280;36499;46.484;13.832;2023-05-11T04:44:15;92694.56;;;11.00;91.74
12471;BME280;36499;46.484;13.832;2023-05-11T04:46:43;92695.34;;;11.01;92.42
12471;BME280;36499;46.484;13.832;2023-05-11T04:49:10;92696.94;;;11.02;92.42
12471;BME280;36499;46.484;13.832;2023-05-11T04:51:37;92691.16;;;11.00;92.19
12471;BME280;36499;46.484;13.832;2023-05-11T04:54:05;92695.00;;;10.97;91.72
12471;BME280;36499;46.484;13.832;2023-05-11T04:56:32;92687.84;;;10.93;92.47
12471;BME280;36499;46.484;13.832;2023-05-11T04:59:01;92692.41;;;10.97;92.05
12471;BME280;36499;46.484;13.832;2023-05-11T05:01:28;92692.75;;;11.01;92.56
12471;BME280;36499;46.484;13.832;2023-05-11T05:03:56;92694.78;;;10.87;92.93
12471;BME280;36499;46.484;13.832;2023-05-11T05:06:23;92687.59;;;10.71;94.17
12471;BME280;36499;46.484;13.832;2023-05-11T05:08:50;92689.06;;;10.67;94.77
12471;BME280;36499;46.484;13.832;2023-05-11T05:11:17;92693.25;;;10.68;94.90
12471;BME280;36499;46.484;13.832;2023-05-11T05:13:46;92686.91;;;10.64;95.09
12471;BME280;36499;46.484;13.832;2023-05-11T05:16:13;92689.25;;;10.66;95.26
12471;BME280;36499;46.484;13.832;2023-05-11T05:18:40;92691.88;;;10.66;95.64
12471;BME280;36499;46.484;13.832;2023-05-11T05:21:08;92692.22;;;10.69;95.32
12471;BME280;36499;46.484;13.832;2023-05-11T05:23:35;92695.19;;;10.73;95.37
12471;BME280;36499;46.484;13.832;2023-05-11T05:26:02;92696.56;;;10.75;95.45
12471;BME280;36499;46.484;13.832;2023-05-11T05:28:29;92699.97;;;10.76;95.79
12471;BME280;36499;46.484;13.832;2023-05-11T05:30:57;92701.53;;;10.77;95.76
12471;BME280;36499;46.484;13.832;2023-05-11T05:33:24;92700.53;;;10.78;95.69
12471;BME280;36499;46.484;13.832;2023-05-11T05:35:51;92696.09;;;10.78;95.25
12471;BME280;36499;46.484;13.832;2023-05-11T05:38:19;92696.69;;;10.80;95.47
12471;BME280;36499;46.484;13.832;2023-05-11T05:40:46;92700.66;;;10.83;95.69
12471;BME280;36499;46.484;13.832;2023-05-11T05:43:13;92692.84;;;10.83;95.29
12471;BME280;36499;46.484;13.832;2023-05-11T05:45:40;92698.06;;;10.83;94.97
12471;BME280;36499;46.484;13.832;2023-05-11T05:48:08;92694.09;;;10.80;95.14
12471;BME280;36499;46.484;13.832;2023-05-11T05:50:35;92697.06;;;10.95;94.32
12471;BME280;36499;46.484;13.832;2023-05-11T05:53:02;92699.69;;;11.19;93.13
12471;BME280;36499;46.484;13.832;2023-05-11T05:55:30;92699.00;;;11.23;93.03
12471;BME280;36499;46.484;13.832;2023-05-11T05:57:57;92695.28;;;11.31;92.78
12471;BME280;36499;46.484;13.832;2023-05-11T06:00:24;92699.59;;;11.37;92.65
12471;BME280;36499;46.484;13.832;2023-05-11T06:02:51;92702.75;;;11.16;93.56
12471;BME280;36499;46.484;13.832;2023-05-11T06:05:18;92697.28;;;11.05;94.50
12471;BME280;36499;46.484;13.832;2023-05-11T06:07:45;92698.44;;;11.21;93.51
12471;BME280;36499;46.484;13.832;2023-05-11T06:10:13;92700.97;;;11.39;92.28
12471;BME280;36499;46.484;13.832;2023-05-11T06:12:41;92705.50;;;11.44;91.68
12471;BME280;36499;46.484;13.832;2023-05-11T06:15:09;92703.69;;;11.44;91.27
12471;BME280;36499;46.484;13.832;2023-05-11T06:17:36;92703.09;;;11.42;91.63
12471;BME280;36499;46.484;13.832;2023-05-11T06:20:05;92703.34;;;11.41;91.46
12471;BME280;36499;46.484;13.832;2023-05-11T06:22:34;92699.69;;;11.42;92.12
12471;BME280;36499;46.484;13.832;2023-05-11T06:25:01;92701.88;;;11.45;91.92
12471;BME280;36499;46.484;13.832;2023-05-11T06:27:28;92705.72;;;11.42;92.08
12471;BME280;36499;46.484;13.832;2023-05-11T06:29:56;92708.13;;;11.44;92.09
12471;BME280;36499;46.484;13.832;2023-05-11T06:32:23;92705.25;;;11.45;91.90
12471;BME280;36499;46.484;13.832;2023-05-11T06:34:50;92703.34;;;11.64;93.83
12471;BME280;36499;46.484;13.832;2023-05-11T06:37:17;92698.91;;;11.88;93.24
12471;BME280;36499;46.484;13.832;2023-05-11T06:39:45;92701.16;;;11.96;92.00
12471;BME280;36499;46.484;13.832;2023-05-11T06:42:12;92705.03;;;11.93;91.37
12471;BME280;36499;46.484;13.832;2023-05-11T06:44:40;92708.47;;;11.82;89.94
12471;BME280;36499;46.484;13.832;2023-05-11T06:47:08;92705.50;;;11.90;90.00
12471;BME280;36499;46.484;13.832;2023-05-11T06:49:35;92699.81;;;11.93;89.15
12471;BME280;36499;46.484;13.832;2023-05-11T06:52:03;92699.69;;;11.88;89.22
12471;BME280;36499;46.484;13.832;2023-05-11T06:54:30;92706.41;;;11.84;89.02
12471;BME280;36499;46.484;13.832;2023-05-11T06:56:57;92709.59;;;11.86;89.45
12471;BME280;36499;46.484;13.832;2023-05-11T06:59:24;92699.94;;;11.87;88.93
12471;BME280;36499;46.484;13.832;2023-05-11T07:01:51;92706.72;;;11.65;90.25
12471;BME280;36499;46.484;13.832;2023-05-11T07:04:20;92708.56;;;11.76;90.69
12471;BME280;36499;46.484;13.832;2023-05-11T07:06:47;92706.66;;;11.83;89.89
12471;BME280;36499;46.484;13.832;2023-05-11T07:09:14;92711.16;;;11.87;89.85
12471;BME280;36499;46.484;13.832;2023-05-11T07:11:41;92708.34;;;11.89;89.42
12471;BME280;36499;46.484;13.832;2023-05-11T07:14:08;92706.19;;;11.86;89.71
12471;BME280;36499;46.484;13.832;2023-05-11T07:16:35;92719.25;;;11.86;89.87
12471;BME280;36499;46.484;13.832;2023-05-11T07:19:03;92715.03;;;11.85;90.44
12471;BME280;36499;46.484;13.832;2023-05-11T07:21:31;92712.44;;;11.85;90.62
12471;BME280;36499;46.484;13.832;2023-05-11T07:23:58;92716.41;;;11.76;90.93
12471;BME280;36499;46.484;13.832;2023-05-11T07:26:26;92715.16;;;11.78;91.47
12471;BME280;36499;46.484;13.832;2023-05-11T07:28:53;92710.94;;;11.89;90.95
12471;BME280;36499;46.484;13.832;2023-05-11T07:31:20;92718.22;;;11.87;90.68
12471;BME280;36499;46.484;13.832;2023-05-11T07:33:47;92721.19;;;11.90;91.12
12471;BME280;36499;46.484;13.832;2023-05-11T07:36:14;92724.13;;;11.94;90.32
12471;BME280;36499;46.484;13.832;2023-05-11T07:38:43;92715.03;;;11.96;90.36
12471;BME280;36499;46.484;13.832;2023-05-11T07:41:10;92717.63;;;11.96;90.57
12471;BME280;36499;46.484;13.832;2023-05-11T07:43:37;92723.66;;;11.97;89.96
12471;BME280;36499;46.484;13.832;2023-05-11T07:46:04;92731.97;;;11.82;90.82
12471;BME280;36499;46.484;13.832;2023-05-11T07:48:32;92728.75;;;11.69;92.20
12471;BME280;36499;46.484;13.832;2023-05-11T07:50:59;92728.19;;;11.67;92.79
12471;BME280;36499;46.484;13.832;2023-05-11T07:53:26;92735.69;;;11.63;92.71
12471;BME280;36499;46.484;13.832;2023-05-11T07:55:54;92733.41;;;11.67;93.05
12471;BME280;36499;46.484;13.832;2023-05-11T07:58:24;92729.00;;;11.67;93.00
12471;BME280;36499;46.484;13.832;2023-05-11T08:00:51;92735.56;;;11.70;93.10
12471;BME280;36499;46.484;13.832;2023-05-11T08:03:18;92734.34;;;11.72;93.28
12471;BME280;36499;46.484;13.832;2023-05-11T08:05:45;92738.00;;;11.71;93.09
12471;BME280;36499;46.484;13.832;2023-05-11T08:08:12;92738.09;;;11.76;93.18
12471;BME280;36499;46.484;13.832;2023-05-11T08:10:41;92742.50;;;11.76;93.42
12471;BME280;36499;46.484;13.832;2023-05-11T08:13:09;92734.78;;;11.81;93.25
12471;BME280;36499;46.484;13.832;2023-05-11T08:15:36;92730.94;;;11.83;92.48
12471;BME280;36499;46.484;13.832;2023-05-11T08:18:04;92729.88;;;12.08;91.70
12471;BME280;36499;46.484;13.832;2023-05-11T08:20:32;92730.00;;;12.01;91.77
12471;BME280;36499;46.484;13.832;2023-05-11T08:22:59;92731.63;;;11.90;92.06
12471;BME280;36499;46.484;13.832;2023-05-11T08:25:26;92732.16;;;12.04;91.48
12471;BME280;36499;46.484;13.832;2023-05-11T08:27:53;92724.69;;;11.96;91.92
12471;BME280;36499;46.484;13.832;2023-05-11T08:30:24;92722.81;;;12.20;90.57
12471;BME280;36499;46.484;13.832;2023-05-11T08:32:51;92728.06;;;12.08;91.07
12471;BME280;36499;46.484;13.832;2023-05-11T08:35:18;92732.97;;;12.05;91.19
12471;BME280;36499;46.484;13.832;2023-05-11T08:37:46;92730.91;;;12.07;91.13
12471;BME280;36499;46.484;13.832;2023-05-11T08:40:13;92727.72;;;12.16;90.61
12471;BME280;36499;46.484;13.832;2023-05-11T08:42:45;92727.13;;;12.14;90.49
12471;BME280;36499;46.484;13.832;2023-05-11T08:45:14;92727.03;;;12.21;89.94
12471;BME280;36499;46.484;13.832;2023-05-11T08:47:44;92723.16;;;12.23;89.73
12471;BME280;36499;46.484;13.832;2023-05-11T08:50:12;92719.06;;;12.27;89.50
12471;BME280;36499;46.484;13.832;2023-05-11T08:52:40;92729.19;;;12.24;88.69
12471;BME280;36499;46.484;13.832;2023-05-11T08:55:09;92715.53;;;12.22;89.02
12471;BME280;36499;46.484;13.832;2023-05-11T08:57:37;92729.97;;;12.24;89.37
12471;BME280;36499;46.484;13.832;2023-05-11T09:00:08;92721.66;;;12.27;89.43
12471;BME280;36499;46.484;13.832;2023-05-11T09:02:35;92719.06;;;12.27;89.15
12471;BME280;36499;46.484;13.832;2023-05-11T09:05:05;92721.53;;;12.34;89.27
12471;BME280;36499;46.484;13.832;2023-05-11T09:07:37;92719.25;;;12.37;88.33
12471;BME280;36499;46.484;13.832;2023-05-11T09:10:08;92715.38;;;12.40;88.67
12471;BME280;36499;46.484;13.832;2023-05-11T09:12:35;92713.44;;;12.47;88.02
12471;BME280;36499;46.484;13.832;2023-05-11T09:15:02;92723.19;;;12.52;88.26
12471;BME280;36499;46.484;13.832;2023-05-11T09:17:29;92710.47;;;12.72;86.65
12471;BME280;36499;46.484;13.832;2023-05-11T09:20:01;92712.81;;;12.85;85.04
12471;BME280;36499;46.484;13.832;2023-05-11T09:22:34;92716.28;;;12.90;84.20
12471;BME280;36499;46.484;13.832;2023-05-11T09:25:01;92710.34;;;12.95;84.07
12471;BME280;36499;46.484;13.832;2023-05-11T09:27:29;92708.28;;;12.80;84.28
12471;BME280;36499;46.484;13.832;2023-05-11T09:30:09;92709.91;;;12.70;85.15
12471;BME280;36499;46.484;13.832;2023-05-11T09:32:47;92707.22;;;12.65;85.89
12471;BME280;36499;46.484;13.832;2023-05-11T09:35:23;92697.75;;;12.64;86.38
12471;BME280;36499;46.484;13.832;2023-05-11T09:38:03;92701.50;;;12.68;86.72
12471;BME280;36499;46.484;13.832;2023-05-11T09:40:33;92702.06;;;12.70;86.84
12471;BME280;36499;46.484;13.832;2023-05-11T09:43:02;92703.19;;;12.74;86.62
12471;BME280;36499;46.484;13.832;2023-05-11T09:45:37;92701.50;;;12.68;86.69
12471;BME280;36499;46.484;13.832;2023-05-11T09:48:13;92690.50;;;12.66;86.65
12471;BME280;36499;46.484;13.832;2023-05-11T09:50:51;92691.03;;;12.68;85.71
12471;BME280;36499;46.484;13.832;2023-05-11T09:53:19;92696.75;;;12.65;85.43
12471;BME280;36499;46.484;13.832;2023-05-11T09:55:51;92690.28;;;12.56;83.26
12471;BME280;36499;46.484;13.832;2023-05-11T09:58:18;92699.19;;;12.55;83.12
12471;BME280;36499;46.484;13.832;2023-05-11T10:00:48;92705.28;;;12.60;84.48
12471;BME280;36499;46.484;13.832;2023-05-11T10:03:17;92698.81;;;12.63;84.88
12471;BME280;36499;46.484;13.832;2023-05-11T10:05:57;92700.16;;;12.65;84.98
12471;BME280;36499;46.484;13.832;2023-05-11T10:08:29;92712.44;;;12.65;84.98
12471;BME280;36499;46.484;13.832;2023-05-11T10:11:01;92703.25;;;12.62;84.39
12471;BME280;36499;46.484;13.832;2023-05-11T10:13:29;92702.34;;;12.57;83.65
12471;BME280;36499;46.484;13.832;2023-05-11T10:16:00;92705.44;;;12.54;84.28
12471;BME280;36499;46.484;13.832;2023-05-11T10:18:30;92694.44;;;12.52;84.72
12471;BME280;36499;46.484;13.832;2023-05-11T10:20:58;92696.47;;;12.49;83.97
12471;BME280;36499;46.484;13.832;2023-05-11T10:23:26;92698.97;;;12.44;84.10
12471;BME280;36499;46.484;13.832;2023-05-11T10:25:55;92705.25;;;12.43;84.76
12471;BME280;36499;46.484;13.832;2023-05-11T10:28:23;92708.88;;;12.42;85.50
12471;BME280;36499;46.484;13.832;2023-05-11T10:30:52;92706.28;;;12.42;85.74
12471;BME280;36499;46.484;13.832;2023-05-11T10:33:19;92700.25;;;12.42;84.58
12471;BME280;36499;46.484;13.832;2023-05-11T10:35:48;92703.56;;;12.37;84.26
12471;BME280;36499;46.484;13.832;2023-05-11T10:38:16;92707.09;;;12.31;85.07
12471;BME280;36499;46.484;13.832;2023-05-11T10:40:47;92703.38;;;12.27;85.21
12471;BME280;36499;46.484;13.832;2023-05-11T10:47:09;92708.28;;;12.24;86.24
12471;BME280;36499;46.484;13.832;2023-05-11T10:50:21;92715.16;;;12.30;86.99
12471;BME280;36499;46.484;13.832;2023-05-11T10:53:20;92711.00;;;12.29;86.30
12471;BME280;36499;46.484;13.832;2023-05-11T10:56:20;92709.50;;;12.21;85.74
12471;BME280;36499;46.484;13.832;2023-05-11T10:59:16;92704.84;;;12.23;86.37
12471;BME280;36499;46.484;13.832;2023-05-11T11:01:50;92706.66;;;12.23;86.42
12471;BME280;36499;46.484;13.832;2023-05-11T11:04:20;92710.31;;;12.22;86.26
12471;BME280;36499;46.484;13.832;2023-05-11T11:07:04;92707.78;;;12.27;86.65
12471;BME280;36499;46.484;13.832;2023-05-11T11:09:51;92711.31;;;12.32;86.31
12471;BME280;36499;46.484;13.832;2023-05-11T11:12:20;92705.38;;;12.37;86.59
12471;BME280;36499;46.484;13.832;2023-05-11T11:15:00;92706.16;;;12.37;86.42
12471;BME280;36499;46.484;13.832;2023-05-11T11:17:28;92706.16;;;12.37;86.45
12471;BME280;36499;46.484;13.832;2023-05-11T11:19:57;92707.97;;;12.37;86.39
12471;BME280;36499;46.484;13.832;2023-05-11T11:22:49;92703.47;;;12.32;86.52
12471;BME280;36499;46.484;13.832;2023-05-11T11:25:52;92706.84;;;12.33;87.22
12471;BME280;36499;46.484;13.832;2023-05-11T11:28:19;92704.72;;;12.30;87.24
12471;BME280;36499;46.484;13.832;2023-05-11T11:30:46;92704.50;;;12.31;86.07
12471;BME280;36499;46.484;13.832;2023-05-11T11:33:40;92706.53;;;12.29;86.64
12471;BME280;36499;46.484;13.832;2023-05-11T11:36:07;92704.38;;;12.26;86.66
12471;BME280;36499;46.484;13.832;2023-05-11T11:38:58;92714.28;;;12.24;85.92
12471;BME280;36499;46.484;13.832;2023-05-11T11:41:30;92702.81;;;12.14;84.37
12471;BME280;36499;46.484;13.832;2023-05-11T11:43:58;92708.84;;;12.14;85.63
12471;BME280;36499;46.484;13.832;2023-05-11T11:46:27;92704.41;;;12.15;85.10
12471;BME280;36499;46.484;13.832;2023-05-11T11:49:06;92706.22;;;12.14;85.63
12471;BME280;36499;46.484;13.832;2023-05-11T11:51:34;92710.44;;;12.15;86.56
12471;BME280;36499;46.484;13.832;2023-05-11T11:54:05;92707.34;;;12.18;86.31
12471;BME280;36499;46.484;13.832;2023-05-11T11:56:46;92712.50;;;12.13;83.73
12471;BME280;36499;46.484;13.832;2023-05-11T11:59:14;92713.41;;;12.07;79.70
12471;BME280;36499;46.484;13.832;2023-05-11T12:01:43;92708.31;;;12.00;80.39
12471;BME280;36499;46.484;13.832;2023-05-11T12:04:49;92706.88;;;11.81;84.84
12471;BME280;36499;46.484;13.832;2023-05-11T12:07:19;92711.97;;;11.76;85.96
12471;BME280;36499;46.484;13.832;2023-05-11T12:09:47;92707.22;;;11.73;86.66
12471;BME280;36499;46.484;13.832;2023-05-11T12:12:19;92711.28;;;11.57;86.88
12471;BME280;36499;46.484;13.832;2023-05-11T12:14:47;92711.75;;;11.54;87.11
12471;BME280;36499;46.484;13.832;2023-05-11T12:17:23;92711.19;;;11.52;87.48
12471;BME280;36499;46.484;13.832;2023-05-11T12:19:50;92712.66;;;11.48;87.76
12471;BME280;36499;46.484;13.832;2023-05-11T12:22:22;92716.28;;;11.36;87.89
12471;BME280;36499;46.484;13.832;2023-05-11T12:24:49;92707.19;;;11.38;88.79
12471;BME280;36499;46.484;13.832;2023-05-11T12:27:18;92712.50;;;11.20;87.67
12471;BME280;36499;46.484;13.832;2023-05-11T12:29:48;92711.47;;;11.10;88.08
12471;BME280;36499;46.484;13.832;2023-05-11T12:32:25;92706.69;;;10.95;88.68
12471;BME280;36499;46.484;13.832;2023-05-11T12:34:59;92703.81;;;10.85;89.77
12471;BME280;36499;46.484;13.832;2023-05-11T12:37:28;92705.28;;;10.81;89.45
12471;BME280;36499;46.484;13.832;2023-05-11T12:39:56;92711.97;;;10.77;87.68
12471;BME280;36499;46.484;13.832;2023-05-11T12:42:26;92711.75;;;10.78;88.23
12471;BME280;36499;46.484;13.832;2023-05-11T12:44:53;92704.63;;;10.85;88.95
12471;BME280;36499;46.484;13.832;2023-05-11T12:47:22;92708.97;;;10.91;89.47
12471;BME280;36499;46.484;13.832;2023-05-11T12:49:49;92703.41;;;10.88;89.21
12471;BME280;36499;46.484;13.832;2023-05-11T12:52:17;92711.41;;;10.75;88.52
12471;BME280;36499;46.484;13.832;2023-05-11T12:54:49;92716.44;;;10.88;88.12
12471;BME280;36499;46.484;13.832;2023-05-11T12:57:26;92717.03;;;11.01;89.56
12471;BME280;36499;46.484;13.832;2023-05-11T13:00:08;92714.28;;;10.96;89.15
12471;BME280;36499;46.484;13.832;2023-05-11T13:02:47;92715.06;;;10.97;88.23
12471;BME280;36499;46.484;13.832;2023-05-11T13:05:15;92715.66;;;10.99;88.68
12471;BME280;36499;46.484;13.832;2023-05-11T13:07:44;92721.31;;;10.96;87.11
12471;BME280;36499;46.484;13.832;2023-05-11T13:10:13;92720.06;;;10.87;88.40
12471;BME280;36499;46.484;13.832;2023-05-11T13:12:51;92717.56;;;10.92;87.15